上海/浦東 の空港の天気 - METARとTAF

上海浦東国際空港 ( ZSPD / PVG ) - 中国 上海市
飛行場実況気象(Metar)
観測時間08/05 03:00 CST (08/04 19:00 UTC)
風向・風速南 12m/s 瞬間風速19m/s
視程6000m
天気現象強いしゅう雨
全天の8割程度の雲 雲底高度 460m
少しの雲 雲底高度 790m
気温26℃
湿度94%
気圧1005hPa
METARZSPD 041900Z 19012G19MPS 6000 +SHRA BKN015 FEW026CB 26/25 Q1005 BECMG TL1950 SHRA BKN013 FEW026CB
過去の天気等 Google飛行場航空写真 Wunderground天気予報

過去48時間のMETAR

飛行場予報(TAF)
発表時間: 8/04 23:16 CST (8/04 15:16 UTC)
予報対象時間: 5日2時 CST ~ 6日2時 CST
風向・風速南 9m/s 瞬間風速 16m/s
視程6000m
全天の8割程度の雲 雲底高度 400m
5日2時 CST ~ 5日8時 CST に一時的に
天気現象強いしゅう雨
全天の8割程度の雲 雲底高度 340m
少しの積乱雲 雲底高度 1010m
5日10時 CST ~ 5日12時 CST に徐々に
風向・風速南 6m/s
全天の8割程度の雲 雲底高度 610m
TAF ZSPD 041516Z 0418/0518 18009G16MPS 6000 BKN013 TX33/0506Z TN26/0420Z
TEMPO 0418/0424 +SHRA BKN011 FEW033CB
BECMG 0502/0504 19006MPS BKN020